Time;durP1;ratioP1;P1;durP2;ratioP2;P2;SDS_P1;SDS_P2;PMS_P1;PMS_P2;Temp;Humidity;BMP_temperature;BMP_pressure;BME280_temperature;BME280_humidity;BME280_pressure;Samples;Min_cycle;Max_cycle;Signal;HPM_P1;HPM_P2
2023/02/03 00:01:30;;;;;;;2.75;2.65;;;;;;;;;;4996288;28;20030;-73
2023/02/03 00:03:55;;;;;;;5.18;2.40;;;;;;;;;;5019269;28;20543;-74
2023/02/03 00:06:21;;;;;;;1.90;1.90;;;;;;;;;;4992256;28;20022;-75
2023/02/03 00:08:46;;;;;;;2.47;2.38;;;;;;;;;;4974635;28;20061;-75
2023/02/03 00:11:11;;;;;;;1.67;1.67;;;;;;;;;;4959427;28;20447;-73
2023/02/03 00:13:37;;;;;;;2.25;2.15;;;;;;;;;;4970940;28;20080;-73
2023/02/03 00:16:05;;;;;;;2.25;2.15;;;;;;;;;;5005815;28;20026;-74
2023/02/03 00:18:30;;;;;;;2.40;2.30;;;;;;;;;;4982933;28;20030;-76
2023/02/03 00:20:55;;;;;;;3.50;3.33;;;;;;;;;;4997826;28;20543;-73
2023/02/03 00:23:21;;;;;;;2.15;2.08;;;;;;;;;;4987388;28;20431;-73
2023/02/03 00:25:46;;;;;;;3.38;3.17;;;;;;;;;;5005932;28;20048;-73
2023/02/03 00:28:11;;;;;;;2.72;2.63;;;;;;;;;;4982164;28;20033;-73
2023/02/03 00:30:36;;;;;;;3.53;3.40;;;;;;;;;;5014327;28;20026;-73
2023/02/03 00:33:03;;;;;;;3.17;3.00;;;;;;;;;;5005302;28;20034;-73
2023/02/03 00:35:28;;;;;;;3.42;3.33;;;;;;;;;;4972205;28;20026;-73
2023/02/03 00:37:54;;;;;;;3.10;3.00;;;;;;;;;;4981976;28;20496;-73
2023/02/03 00:40:21;;;;;;;2.92;2.80;;;;;;;;;;4997671;28;20061;-73
2023/02/03 00:42:46;;;;;;;3.33;3.22;;;;;;;;;;5003965;28;20546;-73
2023/02/03 00:45:11;;;;;;;2.80;2.70;;;;;;;;;;4987915;28;20029;-73
2023/02/03 00:47:37;;;;;;;3.35;3.17;;;;;;;;;;4999358;28;20388;-75
2023/02/03 00:50:03;;;;;;;4.90;4.55;;;;;;;;;;5014094;28;20061;-73
2023/02/03 00:52:29;;;;;;;2.30;2.20;;;;;;;;;;5026591;28;20026;-74
2023/02/03 00:54:54;;;;;;;2.25;2.15;;;;;;;;;;5010120;28;20030;-76
2023/02/03 00:57:19;;;;;;;2.53;2.42;;;;;;;;;;5010912;28;20084;-76
2023/02/03 00:59:45;;;;;;;3.75;3.55;;;;;;;;;;5024822;28;20025;-76
2023/02/03 01:02:10;;;;;;;3.47;3.35;;;;;;;;;;4991870;28;20040;-74
2023/02/03 01:04:35;;;;;;;3.25;3.05;;;;;;;;;;4974704;28;20435;-75
2023/02/03 01:07:01;;;;;;;3.25;3.15;;;;;;;;;;4974264;28;20026;-75
2023/02/03 01:09:26;;;;;;;3.85;3.75;;;;;;;;;;4983380;28;20030;-75
2023/02/03 01:11:51;;;;;;;3.78;3.55;;;;;;;;;;4974545;28;20026;-73
2023/02/03 01:14:17;;;;;;;4.47;4.28;;;;;;;;;;4974512;28;20029;-76
2023/02/03 01:16:42;;;;;;;8.45;3.75;;;;;;;;;;4995488;28;20023;-75
2023/02/03 01:19:07;;;;;;;4.53;4.18;;;;;;;;;;4995229;28;20030;-76
2023/02/03 01:21:35;;;;;;;3.42;3.22;;;;;;;;;;4977815;28;20644;-74
2023/02/03 01:24:00;;;;;;;3.90;3.60;;;;;;;;;;5007336;28;20522;-74
2023/02/03 01:26:25;;;;;;;4.05;3.85;;;;;;;;;;5013679;28;20032;-74
2023/02/03 01:28:55;;;;;;;5.25;4.85;;;;;;;;;;4985388;28;20412;-74
2023/02/03 01:31:25;;;;;;;3.60;3.40;;;;;;;;;;4990717;28;20030;-75
2023/02/03 01:33:53;;;;;;;5.90;5.50;;;;;;;;;;5007781;28;20029;-74
2023/02/03 01:36:19;;;;;;;2.90;2.80;;;;;;;;;;5016567;28;20044;-74
2023/02/03 01:38:45;;;;;;;4.40;4.07;;;;;;;;;;5000820;28;20476;-74
2023/02/03 01:41:16;;;;;;;3.42;3.33;;;;;;;;;;4990807;28;20531;-74
2023/02/03 01:43:44;;;;;;;3.28;3.17;;;;;;;;;;4974591;28;20026;-73
2023/02/03 01:46:17;;;;;;;2.50;2.40;;;;;;;;;;5029901;28;20101;-73
2023/02/03 01:48:43;;;;;;;3.30;3.00;;;;;;;;;;5014766;28;20031;-73
2023/02/03 01:51:09;;;;;;;2.83;2.72;;;;;;;;;;4977326;28;20027;-73
2023/02/03 01:53:36;;;;;;;7.70;7.32;;;;;;;;;;4977254;28;20030;-74
2023/02/03 01:56:03;;;;;;;3.25;3.15;;;;;;;;;;4977519;28;20022;-73
2023/02/03 01:58:31;;;;;;;3.75;3.55;;;;;;;;;;4960893;28;20022;-73
2023/02/03 02:00:57;;;;;;;3.53;3.33;;;;;;;;;;4977202;28;20053;-74
2023/02/03 02:03:27;;;;;;;4.78;4.57;;;;;;;;;;4990336;28;20113;-74
2023/02/03 02:05:57;;;;;;;4.50;4.18;;;;;;;;;;4987176;28;20080;-72
2023/02/03 02:08:23;;;;;;;3.65;3.45;;;;;;;;;;4999404;28;20495;-73
2023/02/03 02:10:49;;;;;;;5.38;5.07;;;;;;;;;;4985896;28;20030;-73
2023/02/03 02:13:15;;;;;;;3.72;3.60;;;;;;;;;;4990045;28;20026;-73
2023/02/03 02:15:59;;;;;;;3.20;3.10;;;;;;;;;;4987598;28;20034;-75
2023/02/03 02:19:06;;;;;;;3.88;3.58;;;;;;;;;;4987875;28;20388;-73
2023/02/03 02:21:36;;;;;;;3.95;3.72;;;;;;;;;;5000686;28;20026;-72
2023/02/03 02:24:23;;;;;;;2.95;2.85;;;;;;;;;;5016302;28;20073;-72
2023/02/03 02:27:13;;;;;;;3.10;3.00;;;;;;;;;;4991094;28;20101;-73
2023/02/03 02:29:53;;;;;;;2.78;2.67;;;;;;;;;;5000327;28;20117;-72
2023/02/03 02:32:33;;;;;;;3.05;2.95;;;;;;;;;;5000608;28;20129;-73
2023/02/03 02:35:07;;;;;;;3.30;3.13;;;;;;;;;;5004065;28;20085;-72
2023/02/03 02:37:54;;;;;;;3.40;3.20;;;;;;;;;;4972981;28;20029;-72
2023/02/03 02:40:22;;;;;;;3.50;3.40;;;;;;;;;;4989343;28;20041;-74
2023/02/03 02:43:10;;;;;;;3.42;3.25;;;;;;;;;;5001013;28;20029;-74
2023/02/03 02:45:44;;;;;;;2.55;2.45;;;;;;;;;;4982639;28;20112;-73
2023/02/03 02:48:16;;;;;;;3.83;3.53;;;;;;;;;;4984729;28;20061;-71
2023/02/03 02:50:46;;;;;;;7.82;2.97;;;;;;;;;;4973165;28;20026;-71
2023/02/03 02:53:12;;;;;;;3.63;3.53;;;;;;;;;;4971872;28;20021;-72
2023/02/03 02:55:38;;;;;;;4.50;4.22;;;;;;;;;;5015104;28;20026;-71
2023/02/03 02:58:08;;;;;;;4.38;4.07;;;;;;;;;;4983436;28;20030;-73
2023/02/03 03:00:34;;;;;;;5.40;5.00;;;;;;;;;;4975994;28;20033;-72
2023/02/03 03:03:16;;;;;;;2.75;2.65;;;;;;;;;;4992174;28;20053;-75
2023/02/03 03:05:45;;;;;;;3.58;3.38;;;;;;;;;;4959877;28;20530;-75
2023/02/03 03:08:12;;;;;;;3.55;3.35;;;;;;;;;;4975423;28;20496;-74
2023/02/03 03:10:38;;;;;;;2.90;2.80;;;;;;;;;;4959525;28;20030;-74
2023/02/03 03:13:06;;;;;;;4.47;4.28;;;;;;;;;;4975933;28;20026;-75
2023/02/03 03:15:33;;;;;;;6.57;5.13;;;;;;;;;;4959763;28;20026;-74
2023/02/03 03:18:06;;;;;;;2.88;2.78;;;;;;;;;;4975750;28;20037;-74
2023/02/03 03:20:32;;;;;;;2.60;2.50;;;;;;;;;;4959672;28;20042;-74
2023/02/03 03:23:06;;;;;;;3.08;2.97;;;;;;;;;;4975630;28;20361;-74
2023/02/03 03:25:37;;;;;;;3.15;3.05;;;;;;;;;;4987361;28;20034;-73
2023/02/03 03:28:07;;;;;;;4.38;3.22;;;;;;;;;;4981970;28;20018;-73
2023/02/03 03:30:35;;;;;;;5.95;4.03;;;;;;;;;;5014627;28;20045;-74
2023/02/03 03:33:01;;;;;;;2.30;2.20;;;;;;;;;;5001952;28;20043;-73
2023/02/03 03:35:31;;;;;;;4.20;3.92;;;;;;;;;;5022127;28;20030;-73
2023/02/03 03:38:06;;;;;;;2.50;2.40;;;;;;;;;;4971027;28;20032;-74
2023/02/03 03:40:42;;;;;;;3.47;3.28;;;;;;;;;;5014612;28;20014;-73
2023/02/03 03:43:10;;;;;;;;;;;;;;;;;;5001540;28;20034;-74
2023/02/03 03:46:16;;;;;;;2.60;2.50;;;;;;;;;;5007822;28;19910;-75
2023/02/03 03:48:46;;;;;;;3.53;3.33;;;;;;;;;;4985142;28;20046;-73
2023/02/03 03:51:26;;;;;;;3.80;3.60;;;;;;;;;;4975206;28;20026;-73
2023/02/03 03:53:52;;;;;;;4.22;3.90;;;;;;;;;;4974998;28;20018;-73
2023/02/03 03:56:23;;;;;;;2.67;2.58;;;;;;;;;;4975067;28;20134;-73
2023/02/03 03:58:49;;;;;;;2.53;2.42;;;;;;;;;;4958553;28;20030;-73
2023/02/03 04:01:15;;;;;;;4.18;3.50;;;;;;;;;;4975042;28;20396;-73
2023/02/03 04:03:45;;;;;;;3.63;3.20;;;;;;;;;;5007387;28;20034;-74
2023/02/03 04:06:11;;;;;;;2.95;2.85;;;;;;;;;;5007506;28;20022;-74
2023/02/03 04:08:38;;;;;;;5.32;3.60;;;;;;;;;;4990667;28;20028;-75
2023/02/03 04:11:03;;;;;;;2.88;2.78;;;;;;;;;;4974759;28;20026;-75
2023/02/03 04:13:28;;;;;;;2.95;2.85;;;;;;;;;;4958731;28;20026;-74
2023/02/03 04:15:54;;;;;;;5.38;4.97;;;;;;;;;;4992141;28;20014;-75
2023/02/03 04:18:19;;;;;;;3.33;3.22;;;;;;;;;;4958321;28;20534;-75
2023/02/03 04:20:44;;;;;;;3.78;3.47;;;;;;;;;;4974638;28;20118;-74
2023/02/03 04:23:09;;;;;;;5.13;4.53;;;;;;;;;;4993136;28;20025;-75
2023/02/03 04:25:35;;;;;;;4.30;4.07;;;;;;;;;;5026907;28;20476;-75
2023/02/03 04:28:00;;;;;;;2.78;2.67;;;;;;;;;;4977508;28;20029;-75
2023/02/03 04:30:26;;;;;;;3.45;3.25;;;;;;;;;;5026797;28;20073;-74
2023/02/03 04:32:51;;;;;;;3.95;3.28;;;;;;;;;;5026940;28;20045;-75
2023/02/03 04:35:17;;;;;;;3.88;3.60;;;;;;;;;;5026839;28;20080;-73
2023/02/03 04:37:42;;;;;;;2.80;2.70;;;;;;;;;;4993444;28;20037;-74
2023/02/03 04:40:08;;;;;;;4.65;4.25;;;;;;;;;;4993825;28;20017;-74
2023/02/03 04:42:36;;;;;;;3.25;3.05;;;;;;;;;;5026480;28;20113;-75
2023/02/03 04:45:01;;;;;;;2.55;2.45;;;;;;;;;;4993916;28;20030;-75
2023/02/03 04:47:27;;;;;;;4.15;3.40;;;;;;;;;;4977376;28;20079;-71
2023/02/03 04:49:52;;;;;;;4.30;4.10;;;;;;;;;;5012771;28;20527;-73
2023/02/03 04:52:17;;;;;;;4.80;4.40;;;;;;;;;;4997900;28;20075;-74
2023/02/03 04:54:42;;;;;;;2.90;2.70;;;;;;;;;;4997923;28;20391;-73
2023/02/03 04:57:08;;;;;;;3.28;3.17;;;;;;;;;;5030403;28;20028;-74
2023/02/03 04:59:33;;;;;;;3.42;3.13;;;;;;;;;;5002960;28;20117;-73
2023/02/03 05:02:03;;;;;;;3.45;3.25;;;;;;;;;;5012434;28;20030;-73
2023/02/03 05:04:29;;;;;;;4.38;4.05;;;;;;;;;;4985653;28;20108;-73
2023/02/03 05:06:56;;;;;;;3.47;3.33;;;;;;;;;;4978084;28;20165;-73
2023/02/03 05:09:21;;;;;;;4.93;3.28;;;;;;;;;;4961974;28;20065;-72
2023/02/03 05:11:47;;;;;;;4.03;3.83;;;;;;;;;;4978011;28;20127;-72
2023/02/03 05:14:12;;;;;;;2.55;2.45;;;;;;;;;;4995391;28;20033;-73
2023/02/03 05:16:37;;;;;;;2.55;2.45;;;;;;;;;;4977862;28;20028;-74
2023/02/03 05:19:02;;;;;;;3.28;3.05;;;;;;;;;;4995133;28;20620;-75
2023/02/03 05:21:28;;;;;;;4.07;3.83;;;;;;;;;;4977986;28;20029;-74
2023/02/03 05:23:53;;;;;;;2.92;2.83;;;;;;;;;;4995347;28;20023;-75
2023/02/03 05:26:18;;;;;;;3.47;3.28;;;;;;;;;;4961792;28;20039;-74
2023/02/03 05:28:44;;;;;;;4.20;4.00;;;;;;;;;;4961232;28;20030;-73
2023/02/03 05:31:09;;;;;;;4.22;3.92;;;;;;;;;;4977459;28;20088;-75
2023/02/03 05:33:34;;;;;;;4.72;4.43;;;;;;;;;;4961528;28;20046;-74
2023/02/03 05:36:00;;;;;;;3.15;3.05;;;;;;;;;;4961469;28;20113;-75
2023/02/03 05:38:25;;;;;;;3.38;3.25;;;;;;;;;;4977137;28;20022;-74
2023/02/03 05:43:35;;;;;;;3.40;3.20;;;;;;;;;;4980286;28;20120;-74
2023/02/03 05:46:02;;;;;;;3.05;2.92;;;;;;;;;;5002700;28;20108;-73
2023/02/03 05:48:27;;;;;;;2.40;2.30;;;;;;;;;;5016752;28;20080;-74
2023/02/03 05:50:53;;;;;;;3.53;3.35;;;;;;;;;;5007686;28;20066;-73
2023/02/03 05:53:18;;;;;;;2.85;2.65;;;;;;;;;;4991699;28;20026;-75
2023/02/03 05:55:43;;;;;;;2.53;2.42;;;;;;;;;;5029690;28;20025;-74
2023/02/03 05:58:09;;;;;;;3.33;3.10;;;;;;;;;;5012579;28;20116;-74
2023/02/03 06:00:34;;;;;;;2.92;2.72;;;;;;;;;;5021090;28;20499;-73
2023/02/03 06:03:01;;;;;;;5.50;3.10;;;;;;;;;;5009764;28;20069;-74
2023/02/03 06:05:27;;;;;;;2.53;2.42;;;;;;;;;;4993282;28;20073;-74
2023/02/03 06:07:53;;;;;;;2.78;2.67;;;;;;;;;;4992942;28;20439;-74
2023/02/03 06:10:19;;;;;;;5.53;5.22;;;;;;;;;;4993219;28;20105;-75
2023/02/03 06:12:44;;;;;;;2.75;2.65;;;;;;;;;;4977052;28;20023;-73
2023/02/03 06:15:10;;;;;;;3.05;2.83;;;;;;;;;;5001833;28;20107;-75
2023/02/03 06:17:35;;;;;;;2.60;2.50;;;;;;;;;;4996077;28;20072;-73
2023/02/03 06:20:06;;;;;;;3.58;3.25;;;;;;;;;;4996271;28;20025;-75
2023/02/03 06:22:31;;;;;;;4.30;4.00;;;;;;;;;;5013689;28;20097;-75
2023/02/03 06:24:56;;;;;;;19.80;8.55;;;;;;;;;;4989360;28;20117;-74
2023/02/03 06:27:22;;;;;;;6.95;6.30;;;;;;;;;;4989801;28;20044;-74
2023/02/03 06:29:47;;;;;;;4.10;3.90;;;;;;;;;;4980520;28;20036;-74
2023/02/03 06:32:12;;;;;;;2.80;2.70;;;;;;;;;;4994375;28;20031;-74
2023/02/03 06:34:38;;;;;;;2.75;2.65;;;;;;;;;;5022430;28;20022;-74
2023/02/03 06:37:03;;;;;;;4.32;4.07;;;;;;;;;;5005626;28;20018;-73
2023/02/03 06:39:28;;;;;;;9.02;8.27;;;;;;;;;;5022380;28;20041;-75
2023/02/03 06:41:55;;;;;;;6.00;5.57;;;;;;;;;;4992705;28;20404;-74
2023/02/03 06:44:20;;;;;;;5.43;5.13;;;;;;;;;;4995900;28;20026;-74
2023/02/03 06:46:45;;;;;;;4.03;3.72;;;;;;;;;;5012253;28;20480;-74
2023/02/03 06:49:11;;;;;;;4.03;3.83;;;;;;;;;;5007337;28;20483;-73
2023/02/03 06:51:36;;;;;;;3.33;3.13;;;;;;;;;;4984859;28;20030;-73
2023/02/03 06:54:05;;;;;;;2.83;2.70;;;;;;;;;;4977345;28;20117;-74
2023/02/03 06:56:30;;;;;;;4.30;4.07;;;;;;;;;;4960295;28;20404;-74
2023/02/03 06:58:56;;;;;;;3.50;3.30;;;;;;;;;;4981405;28;20029;-74
2023/02/03 07:01:22;;;;;;;2.90;2.80;;;;;;;;;;4994064;28;20476;-74
2023/02/03 07:03:47;;;;;;;2.80;2.70;;;;;;;;;;5008739;28;20030;-72
2023/02/03 07:06:13;;;;;;;3.28;3.17;;;;;;;;;;4985513;28;20034;-74
2023/02/03 07:08:38;;;;;;;2.30;2.20;;;;;;;;;;4982226;28;20034;-73
2023/02/03 07:11:03;;;;;;;3.63;3.42;;;;;;;;;;5015837;28;20361;-73
2023/02/03 07:13:29;;;;;;;3.13;3.03;;;;;;;;;;5006035;28;20022;-75
2023/02/03 07:15:54;;;;;;;3.22;2.95;;;;;;;;;;4988405;28;20388;-74
2023/02/03 07:18:23;;;;;;;2.40;2.30;;;;;;;;;;4982041;28;20026;-74
2023/02/03 07:20:49;;;;;;;2.35;2.25;;;;;;;;;;4983385;28;20230;-74
2023/02/03 07:23:14;;;;;;;4.07;3.78;;;;;;;;;;4988916;28;20109;-73
2023/02/03 07:25:39;;;;;;;3.13;3.03;;;;;;;;;;4987684;28;20033;-74
2023/02/03 07:28:05;;;;;;;2.55;2.45;;;;;;;;;;5014355;28;20045;-73
2023/02/03 07:30:30;;;;;;;2.80;2.70;;;;;;;;;;4994894;28;20036;-74
2023/02/03 07:32:55;;;;;;;2.80;2.70;;;;;;;;;;4992985;28;20022;-74
2023/02/03 07:35:21;;;;;;;3.42;3.15;;;;;;;;;;4958343;28;20109;-74
2023/02/03 07:37:47;;;;;;;2.50;2.30;;;;;;;;;;4975625;28;20030;-74
2023/02/03 07:40:13;;;;;;;2.92;2.83;;;;;;;;;;4974644;28;20029;-73
2023/02/03 07:42:43;;;;;;;2.92;2.72;;;;;;;;;;4959039;28;20117;-74
2023/02/03 07:45:09;;;;;;;3.50;3.30;;;;;;;;;;5004457;28;20065;-74
2023/02/03 07:47:34;;;;;;;2.47;2.38;;;;;;;;;;5013331;28;20026;-74
2023/02/03 07:50:00;;;;;;;2.40;2.30;;;;;;;;;;4994644;28;20076;-74
2023/02/03 07:52:25;;;;;;;2.17;2.00;;;;;;;;;;4998621;28;20108;-74
2023/02/03 07:54:50;;;;;;;3.15;2.42;;;;;;;;;;5000958;28;20030;-74
2023/02/03 07:57:16;;;;;;;2.10;2.00;;;;;;;;;;4978702;28;20026;-73
2023/02/03 07:59:41;;;;;;;2.78;2.67;;;;;;;;;;5009636;28;20057;-73
2023/02/03 08:02:10;;;;;;;2.60;2.50;;;;;;;;;;4992307;28;20097;-74
2023/02/03 08:04:35;;;;;;;2.35;2.25;;;;;;;;;;5001425;28;20039;-74
2023/02/03 08:07:00;;;;;;;2.85;2.75;;;;;;;;;;5008361;28;20369;-74
2023/02/03 08:09:25;;;;;;;2.78;2.67;;;;;;;;;;4978207;28;20034;-74
2023/02/03 08:11:51;;;;;;;2.53;2.42;;;;;;;;;;5011707;28;20113;-74
2023/02/03 08:14:16;;;;;;;2.28;2.17;;;;;;;;;;4998353;28;20034;-74
2023/02/03 08:16:41;;;;;;;3.22;3.03;;;;;;;;;;5008205;28;20476;-74
2023/02/03 08:19:07;;;;;;;2.35;2.25;;;;;;;;;;5024551;28;20030;-74
2023/02/03 08:21:32;;;;;;;4.80;3.17;;;;;;;;;;5021089;28;20014;-75
2023/02/03 08:23:57;;;;;;;2.95;2.75;;;;;;;;;;5018356;28;20640;-74
2023/02/03 08:26:22;;;;;;;2.05;2.00;;;;;;;;;;5008770;28;20030;-75
2023/02/03 08:28:49;;;;;;;2.28;2.17;;;;;;;;;;5010561;28;20022;-74
2023/02/03 08:31:14;;;;;;;3.80;3.60;;;;;;;;;;4980902;28;20369;-74
2023/02/03 08:33:39;;;;;;;3.20;3.08;;;;;;;;;;4983137;28;20033;-74
2023/02/03 08:36:05;;;;;;;2.53;2.42;;;;;;;;;;4992088;28;20041;-75
2023/02/03 08:38:31;;;;;;;1.88;1.77;;;;;;;;;;5000407;28;20034;-74
2023/02/03 08:40:56;;;;;;;2.72;2.53;;;;;;;;;;4987872;28;20114;-74
2023/02/03 08:43:21;;;;;;;2.30;2.20;;;;;;;;;;5002718;28;20040;-74
2023/02/03 08:45:46;;;;;;;1.80;1.80;;;;;;;;;;4981010;28;20030;-74
2023/02/03 08:48:12;;;;;;;2.08;2.05;;;;;;;;;;5015981;28;20023;-74
2023/02/03 08:50:40;;;;;;;4.25;4.05;;;;;;;;;;5020250;28;20105;-74
2023/02/03 08:53:05;;;;;;;1.98;1.90;;;;;;;;;;4999741;28;20446;-74
2023/02/03 08:55:31;;;;;;;2.40;2.30;;;;;;;;;;4976645;28;20485;-74
2023/02/03 08:57:56;;;;;;;3.05;2.95;;;;;;;;;;4958329;28;20026;-74
2023/02/03 09:00:21;;;;;;;2.78;2.58;;;;;;;;;;4984562;28;20022;-74
2023/02/03 09:02:47;;;;;;;2.40;2.30;;;;;;;;;;5018477;28;20034;-74
2023/02/03 09:05:12;;;;;;;18.85;5.07;;;;;;;;;;4996903;28;20462;-74
2023/02/03 09:07:38;;;;;;;2.15;2.05;;;;;;;;;;4997003;28;20026;-74
2023/02/03 09:10:03;;;;;;;2.35;2.25;;;;;;;;;;4996251;28;20087;-74
2023/02/03 09:12:28;;;;;;;2.35;2.13;;;;;;;;;;5010042;28;20372;-74
2023/02/03 09:14:54;;;;;;;2.30;2.17;;;;;;;;;;5008880;28;20029;-74
2023/02/03 09:17:19;;;;;;;1.88;1.85;;;;;;;;;;4991361;28;20399;-74
2023/02/03 09:19:44;;;;;;;2.20;2.10;;;;;;;;;;4971088;28;20030;-74
2023/02/03 09:22:09;;;;;;;2.50;2.30;;;;;;;;;;5002126;28;20014;-75
2023/02/03 09:24:35;;;;;;;3.28;3.08;;;;;;;;;;5008134;28;20030;-74
2023/02/03 09:27:00;;;;;;;2.42;2.25;;;;;;;;;;4990099;28;20037;-74
2023/02/03 09:29:26;;;;;;;2.08;1.98;;;;;;;;;;5006730;28;20480;-74
2023/02/03 09:31:51;;;;;;;1.77;1.77;;;;;;;;;;5006578;28;20034;-75
2023/02/03 09:34:18;;;;;;;5.72;5.22;;;;;;;;;;5023552;28;20029;-75
2023/02/03 09:36:43;;;;;;;2.13;2.03;;;;;;;;;;4969687;28;20069;-75
2023/02/03 09:39:09;;;;;;;2.50;2.40;;;;;;;;;;4963665;28;20022;-74
2023/02/03 09:42:06;;;;;;;3.00;2.90;;;;;;;;;;4995068;28;20477;-74
2023/02/03 09:44:34;;;;;;;;;;;;;;;;;;4975556;28;20030;-74
2023/02/03 09:47:02;;;;;;;2.38;2.28;;;;;;;;;;4977298;28;20008;-75
2023/02/03 09:49:37;;;;;;;1.50;1.50;;;;;;;;;;4969655;28;20117;-74
2023/02/03 09:52:09;;;;;;;1.95;1.95;;;;;;;;;;5013197;28;20480;-73
2023/02/03 09:54:46;;;;;;;2.67;2.47;;;;;;;;;;5008712;28;20042;-74
2023/02/03 09:57:20;;;;;;;1.95;1.90;;;;;;;;;;5009217;28;20030;-74
2023/02/03 09:59:45;;;;;;;2.38;2.28;;;;;;;;;;5009234;28;20037;-74
2023/02/03 10:02:24;;;;;;;1.88;1.88;;;;;;;;;;4980174;28;20121;-74
2023/02/03 10:04:57;;;;;;;2.20;2.05;;;;;;;;;;4990578;28;20105;-75
2023/02/03 10:07:44;;;;;;;1.70;1.70;;;;;;;;;;5022289;28;20022;-75
2023/02/03 10:10:17;;;;;;;2.35;2.25;;;;;;;;;;4994422;28;20150;-74
2023/02/03 10:13:05;;;;;;;6.28;2.20;;;;;;;;;;4977077;28;20026;-75
2023/02/03 10:15:43;;;;;;;1.63;1.63;;;;;;;;;;4976989;28;20041;-75
2023/02/03 10:18:27;;;;;;;1.33;1.30;;;;;;;;;;4976277;28;20026;-75
2023/02/03 10:20:56;;;;;;;1.95;1.85;;;;;;;;;;4990191;28;20014;-74
2023/02/03 10:23:32;;;;;;;1.25;1.25;;;;;;;;;;4989263;28;20026;-74
2023/02/03 10:26:00;;;;;;;1.85;1.75;;;;;;;;;;4962414;28;20481;-74
2023/02/03 10:28:29;;;;;;;11.73;2.67;;;;;;;;;;4987478;28;20031;-74
2023/02/03 10:30:57;;;;;;;2.42;2.22;;;;;;;;;;5010831;28;20436;-74
2023/02/03 10:33:30;;;;;;;4.53;1.95;;;;;;;;;;5011491;28;20057;-74
2023/02/03 10:36:21;;;;;;;2.60;1.90;;;;;;;;;;5011439;28;20045;-75
2023/02/03 10:38:47;;;;;;;2.40;2.30;;;;;;;;;;5010910;28;20030;-74
2023/02/03 10:41:14;;;;;;;1.48;1.38;;;;;;;;;;4991897;28;20029;-74
2023/02/03 10:43:51;;;;;;;0.80;0.80;;;;;;;;;;4991957;28;20535;-74
2023/02/03 10:46:26;;;;;;;1.08;1.08;;;;;;;;;;5005349;28;20018;-75
2023/02/03 10:48:51;;;;;;;1.92;1.80;;;;;;;;;;4984839;28;20053;-74
2023/02/03 10:51:20;;;;;;;1.23;1.20;;;;;;;;;;4988102;28;20680;-74
2023/02/03 10:53:46;;;;;;;1.38;1.27;;;;;;;;;;4964137;28;20025;-74
2023/02/03 10:56:17;;;;;;;1.20;1.20;;;;;;;;;;5002665;28;20044;-74
2023/02/03 10:59:00;;;;;;;1.08;1.08;;;;;;;;;;5007420;28;20030;-74
2023/02/03 11:01:43;;;;;;;1.45;0.98;;;;;;;;;;5007625;28;20072;-74
2023/02/03 11:04:25;;;;;;;1.27;1.27;;;;;;;;;;5019206;28;20076;-74
2023/02/03 11:07:02;;;;;;;1.25;1.23;;;;;;;;;;5006481;28;20393;-75
2023/02/03 11:09:31;;;;;;;3.00;1.98;;;;;;;;;;4972631;28;20104;-74
2023/02/03 11:12:11;;;;;;;1.67;1.55;;;;;;;;;;4972556;28;20023;-74
2023/02/03 11:14:43;;;;;;;1.45;1.35;;;;;;;;;;4988997;28;20025;-74
2023/02/03 11:17:14;;;;;;;1.30;1.30;;;;;;;;;;4969007;28;20025;-74
2023/02/03 11:19:45;;;;;;;2.92;1.02;;;;;;;;;;4998494;28;20022;-74
2023/02/03 11:22:11;;;;;;;1.75;1.70;;;;;;;;;;5000476;28;20022;-73
2023/02/03 11:24:38;;;;;;;1.20;1.10;;;;;;;;;;4979700;28;20100;-74
2023/02/03 11:27:15;;;;;;;1.58;1.50;;;;;;;;;;4984404;28;20461;-73
2023/02/03 11:29:46;;;;;;;1.10;0.98;;;;;;;;;;4972456;28;20457;-74
2023/02/03 11:32:32;;;;;;;1.30;1.30;;;;;;;;;;4988286;28;20030;-74
2023/02/03 11:35:00;;;;;;;0.85;0.85;;;;;;;;;;5005945;28;20030;-74
2023/02/03 11:37:37;;;;;;;1.40;1.35;;;;;;;;;;4990626;28;20042;-75
2023/02/03 11:40:10;;;;;;;2.15;1.73;;;;;;;;;;5003125;28;20025;-74
2023/02/03 11:42:37;;;;;;;2.25;1.25;;;;;;;;;;4977888;28;20567;-73
2023/02/03 11:45:16;;;;;;;1.08;1.08;;;;;;;;;;4959149;28;20076;-74
2023/02/03 11:47:57;;;;;;;1.33;1.23;;;;;;;;;;4980794;28;20112;-74
2023/02/03 11:50:29;;;;;;;1.15;1.08;;;;;;;;;;4965391;28;20037;-74
2023/02/03 11:52:57;;;;;;;1.20;1.08;;;;;;;;;;5001698;28;20034;-74
2023/02/03 11:55:33;;;;;;;1.17;1.08;;;;;;;;;;5023630;28;20109;-74
2023/02/03 11:58:06;;;;;;;0.65;0.65;;;;;;;;;;4999763;28;20102;-74
2023/02/03 12:00:47;;;;;;;1.20;1.10;;;;;;;;;;5017450;28;20030;-74
2023/02/03 12:03:56;;;;;;;0.82;0.82;;;;;;;;;;5018401;28;20049;-74
2023/02/03 12:06:35;;;;;;;1.30;1.20;;;;;;;;;;4998304;28;20049;-74
2023/02/03 12:09:07;;;;;;;1.05;1.05;;;;;;;;;;5018062;28;20118;-74
2023/02/03 12:12:03;;;;;;;0.90;0.90;;;;;;;;;;5005370;28;20437;-74
2023/02/03 12:14:32;;;;;;;0.88;0.88;;;;;;;;;;4971789;28;20032;-76
2023/02/03 12:17:09;;;;;;;1.83;1.67;;;;;;;;;;4964690;28;20399;-74
2023/02/03 12:19:43;;;;;;;2.42;1.30;;;;;;;;;;5005276;28;20030;-74
2023/02/03 12:22:19;;;;;;;0.70;0.70;;;;;;;;;;4992014;28;20026;-74
2023/02/03 12:24:58;;;;;;;0.93;0.93;;;;;;;;;;4978761;28;20080;-74
2023/02/03 12:27:46;;;;;;;3.40;1.48;;;;;;;;;;4982490;28;20022;-74
2023/02/03 12:30:21;;;;;;;4.30;1.63;;;;;;;;;;4974946;28;20034;-74
2023/02/03 12:32:52;;;;;;;1.05;1.05;;;;;;;;;;4961444;28;20656;-74
2023/02/03 12:35:31;;;;;;;1.05;1.02;;;;;;;;;;4979595;28;20022;-74
2023/02/03 12:38:04;;;;;;;2.20;2.00;;;;;;;;;;4980250;28;20030;-74
2023/02/03 12:40:40;;;;;;;1.85;1.15;;;;;;;;;;4977283;28;20531;-75
2023/02/03 12:43:17;;;;;;;0.95;0.80;;;;;;;;;;4968087;28;20030;-75
2023/02/03 12:45:51;;;;;;;0.90;0.88;;;;;;;;;;4978355;28;20014;-74
2023/02/03 12:48:20;;;;;;;0.88;0.88;;;;;;;;;;4967810;28;20034;-75
2023/02/03 12:51:09;;;;;;;0.80;0.80;;;;;;;;;;5017444;28;20031;-75
2023/02/03 12:53:43;;;;;;;0.80;0.80;;;;;;;;;;4979157;28;20023;-75
2023/02/03 12:56:11;;;;;;;1.25;1.15;;;;;;;;;;4965964;28;20032;-75
2023/02/03 12:58:40;;;;;;;2.53;2.33;;;;;;;;;;4992952;28;20060;-75
2023/02/03 13:01:10;;;;;;;2.63;1.65;;;;;;;;;;4974937;28;20104;-75
2023/02/03 13:03:50;;;;;;;0.90;0.90;;;;;;;;;;4987643;28;20037;-75
2023/02/03 13:06:20;;;;;;;1.00;1.00;;;;;;;;;;4991724;28;20044;-74
2023/02/03 13:08:53;;;;;;;1.40;1.30;;;;;;;;;;4961766;28;20400;-75
2023/02/03 13:11:39;;;;;;;2.40;1.50;;;;;;;;;;4959753;28;20476;-74
2023/02/03 13:14:21;;;;;;;1.08;1.08;;;;;;;;;;4978120;28;20045;-74
2023/02/03 13:16:50;;;;;;;1.63;1.52;;;;;;;;;;4977887;28;20022;-72
2023/02/03 13:19:19;;;;;;;1.25;1.25;;;;;;;;;;4990968;28;20033;-74
2023/02/03 13:21:47;;;;;;;1.15;1.15;;;;;;;;;;4961914;28;20070;-74
2023/02/03 13:24:12;;;;;;;1.40;1.30;;;;;;;;;;4979570;28;20425;-74
2023/02/03 13:26:54;;;;;;;1.98;1.83;;;;;;;;;;4973079;28;20089;-74
2023/02/03 13:29:25;;;;;;;1.30;1.20;;;;;;;;;;4995731;28;20030;-74
2023/02/03 13:32:15;;;;;;;0.90;0.90;;;;;;;;;;5004307;28;20030;-74
2023/02/03 13:35:10;;;;;;;2.05;1.52;;;;;;;;;;5006512;28;20022;-74
2023/02/03 13:37:57;;;;;;;1.20;1.10;;;;;;;;;;4984061;28;20026;-74
2023/02/03 13:40:39;;;;;;;1.25;1.25;;;;;;;;;;4987725;28;20019;-73
2023/02/03 13:43:11;;;;;;;1.00;1.00;;;;;;;;;;4967127;28;20022;-72
2023/02/03 13:45:39;;;;;;;0.95;0.95;;;;;;;;;;4969531;28;20041;-74
2023/02/03 13:48:30;;;;;;;1.48;1.48;;;;;;;;;;5014270;28;20029;-73
2023/02/03 13:51:19;;;;;;;1.50;1.40;;;;;;;;;;4983888;28;20027;-74
2023/02/03 13:53:46;;;;;;;1.02;1.02;;;;;;;;;;4984538;28;20029;-74
2023/02/03 13:56:21;;;;;;;1.30;1.00;;;;;;;;;;4992607;28;20030;-74
2023/02/03 13:59:13;;;;;;;1.80;1.70;;;;;;;;;;4973328;28;20117;-76
2023/02/03 14:01:40;;;;;;;1.15;1.15;;;;;;;;;;4949646;28;20473;-76
2023/02/03 14:04:30;;;;;;;1.33;1.33;;;;;;;;;;5005239;28;20396;-73
2023/02/03 14:06:58;;;;;;;8.40;1.77;;;;;;;;;;4949755;28;20037;-74
2023/02/03 14:09:29;;;;;;;1.45;1.35;;;;;;;;;;4989243;28;20031;-74
2023/02/03 14:12:19;;;;;;;1.77;1.40;;;;;;;;;;5014011;28;20033;-74
2023/02/03 14:14:50;;;;;;;1.70;1.60;;;;;;;;;;4992750;28;20105;-74
2023/02/03 14:17:39;;;;;;;1.77;1.77;;;;;;;;;;4994274;28;20093;-74
2023/02/03 14:20:25;;;;;;;1.58;1.58;;;;;;;;;;4966710;28;20038;-74
2023/02/03 14:22:54;;;;;;;2.38;2.20;;;;;;;;;;4975583;28;20030;-74
2023/02/03 14:25:19;;;;;;;2.10;2.00;;;;;;;;;;4976838;28;20062;-74
2023/02/03 14:27:45;;;;;;;2.65;2.47;;;;;;;;;;4969804;28;20069;-74
2023/02/03 14:30:13;;;;;;;2.20;2.10;;;;;;;;;;4993520;28;20033;-74
2023/02/03 14:32:59;;;;;;;4.32;4.13;;;;;;;;;;4979565;28;20113;-74
2023/02/03 14:35:39;;;;;;;1.60;1.60;;;;;;;;;;4976221;28;20089;-74
2023/02/03 14:38:06;;;;;;;2.22;2.13;;;;;;;;;;5012660;28;20033;-73
2023/02/03 14:40:44;;;;;;;2.30;2.20;;;;;;;;;;5011962;28;20030;-74
2023/02/03 14:43:18;;;;;;;3.63;2.30;;;;;;;;;;4984330;28;20027;-74
2023/02/03 14:46:08;;;;;;;2.30;2.20;;;;;;;;;;4993816;28;20024;-74
2023/02/03 14:48:50;;;;;;;1.92;1.92;;;;;;;;;;4993788;28;20022;-74
2023/02/03 14:51:54;;;;;;;1.60;1.50;;;;;;;;;;5003651;28;20029;-74
2023/02/03 14:54:33;;;;;;;1.52;1.52;;;;;;;;;;4948826;28;20624;-74
2023/02/03 14:57:22;;;;;;;1.88;1.77;;;;;;;;;;5003173;28;20116;-74
2023/02/03 14:59:50;;;;;;;2.17;2.08;;;;;;;;;;4990935;28;20030;-74
2023/02/03 15:02:24;;;;;;;2.38;2.28;;;;;;;;;;4979038;28;20473;-72
2023/02/03 15:04:51;;;;;;;2.33;2.10;;;;;;;;;;4997553;28;20018;-74